Time;durP1;ratioP1;P1;durP2;ratioP2;P2;SDS_P1;SDS_P2;PMS_P1;PMS_P2;Temp;Humidity;BMP_temperature;BMP_pressure;BME280_temperature;BME280_humidity;BME280_pressure;Samples;Min_cycle;Max_cycle;Signal;HPM_P1;HPM_P2
2022/12/05 00:01:16;;;;;;;54.90;35.90;;;;;;;;;;5012775;28;20270;-85
2022/12/05 00:03:42;;;;;;;59.23;37.63;;;;;;;;;;4996398;28;20177;-86
2022/12/05 00:06:08;;;;;;;57.03;36.73;;;;;;;;;;4995468;28;20259;-85
2022/12/05 00:08:34;;;;;;;58.33;38.40;;;;;;;;;;4996168;28;20185;-85
2022/12/05 00:11:00;;;;;;;60.07;38.50;;;;;;;;;;5007020;28;20188;-85
2022/12/05 00:13:26;;;;;;;60.17;38.33;;;;;;;;;;4976752;28;20221;-85
2022/12/05 00:15:52;;;;;;;63.50;39.83;;;;;;;;;;4977283;28;20189;-85
2022/12/05 00:18:18;;;;;;;62.40;40.30;;;;;;;;;;4993158;28;20178;-86
2022/12/05 00:20:45;;;;;;;60.97;38.53;;;;;;;;;;4992971;28;20202;-85
2022/12/05 00:23:11;;;;;;;62.50;39.97;;;;;;;;;;4995432;28;20247;-86
2022/12/05 00:25:37;;;;;;;64.67;40.00;;;;;;;;;;4999705;28;20208;-85
2022/12/05 00:28:04;;;;;;;65.30;39.93;;;;;;;;;;4999831;28;20173;-85
2022/12/05 00:30:30;;;;;;;68.00;39.87;;;;;;;;;;4999961;28;20182;-86
2022/12/05 00:32:56;;;;;;;69.57;40.83;;;;;;;;;;4999914;28;20204;-85
2022/12/05 00:35:22;;;;;;;64.30;39.93;;;;;;;;;;4999920;28;20212;-86
2022/12/05 00:37:48;;;;;;;61.13;39.07;;;;;;;;;;4999527;28;20264;-85
2022/12/05 00:40:14;;;;;;;66.27;41.10;;;;;;;;;;5000128;28;20190;-86
2022/12/05 00:42:41;;;;;;;65.20;39.70;;;;;;;;;;5015937;28;20300;-85
2022/12/05 00:45:07;;;;;;;65.53;41.30;;;;;;;;;;4983463;28;20236;-85
2022/12/05 00:47:36;;;;;;;64.00;40.20;;;;;;;;;;4983539;28;20182;-85
2022/12/05 00:50:03;;;;;;;66.40;40.73;;;;;;;;;;4983323;28;20185;-85
2022/12/05 00:52:29;;;;;;;66.40;40.00;;;;;;;;;;5015977;28;20185;-85
2022/12/05 00:54:55;;;;;;;65.23;40.73;;;;;;;;;;4983270;28;20185;-86
2022/12/05 00:57:21;;;;;;;69.00;41.17;;;;;;;;;;4983295;28;20196;-85
2022/12/05 00:59:47;;;;;;;62.70;39.87;;;;;;;;;;5015900;28;20181;-85
2022/12/05 01:02:13;;;;;;;69.00;40.70;;;;;;;;;;5015679;28;20216;-86
2022/12/05 01:04:39;;;;;;;66.87;39.93;;;;;;;;;;5003284;28;20208;-86
2022/12/05 01:07:05;;;;;;;68.30;40.67;;;;;;;;;;4998999;28;20192;-85
2022/12/05 01:09:31;;;;;;;64.73;39.73;;;;;;;;;;4983380;28;20181;-85
2022/12/05 01:11:57;;;;;;;64.17;40.80;;;;;;;;;;5012812;28;20200;-85
2022/12/05 01:14:24;;;;;;;69.00;40.17;;;;;;;;;;4999179;28;20189;-86
2022/12/05 01:16:52;;;;;;;67.57;40.27;;;;;;;;;;4998453;28;20196;-85
2022/12/05 01:19:20;;;;;;;65.90;40.37;;;;;;;;;;5014837;28;20252;-85
2022/12/05 01:21:46;;;;;;;67.50;39.77;;;;;;;;;;4999073;28;20275;-85
2022/12/05 01:24:12;;;;;;;67.30;40.53;;;;;;;;;;4998580;28;20193;-85
2022/12/05 01:26:40;;;;;;;69.47;40.67;;;;;;;;;;4997568;28;20185;-85
2022/12/05 01:29:06;;;;;;;66.70;39.40;;;;;;;;;;5015296;28;20196;-85
2022/12/05 01:31:33;;;;;;;65.97;40.87;;;;;;;;;;4981948;28;20448;-85
2022/12/05 01:34:00;;;;;;;63.57;39.80;;;;;;;;;;5014863;28;20201;-86
2022/12/05 01:36:26;;;;;;;62.13;39.07;;;;;;;;;;4974048;28;20189;-85
2022/12/05 01:38:53;;;;;;;66.87;39.77;;;;;;;;;;4999699;28;20189;-85
2022/12/05 01:41:21;;;;;;;72.13;41.03;;;;;;;;;;4998358;28;20295;-85
2022/12/05 01:44:06;;;;;;;66.00;39.17;;;;;;;;;;4999005;28;20177;-85
2022/12/05 01:46:33;;;;;;;65.33;39.10;;;;;;;;;;4997742;28;20315;-85
2022/12/05 01:49:05;;;;;;;64.40;38.70;;;;;;;;;;4998104;28;20192;-85
2022/12/05 01:51:32;;;;;;;65.97;38.90;;;;;;;;;;4993685;28;20218;-85
2022/12/05 01:53:58;;;;;;;66.07;39.27;;;;;;;;;;4997340;28;20303;-85
2022/12/05 01:56:24;;;;;;;60.30;38.17;;;;;;;;;;4981329;28;20224;-85
2022/12/05 01:58:50;;;;;;;61.37;37.77;;;;;;;;;;4982260;28;20196;-85
2022/12/05 02:01:17;;;;;;;62.60;37.40;;;;;;;;;;5013148;28;20227;-86
2022/12/05 02:03:43;;;;;;;58.93;37.00;;;;;;;;;;5002026;28;20190;-85
2022/12/05 02:06:10;;;;;;;60.87;38.00;;;;;;;;;;4992855;28;20220;-84
2022/12/05 02:08:36;;;;;;;62.13;37.83;;;;;;;;;;4994987;28;20190;-86
2022/12/05 02:11:05;;;;;;;58.07;37.27;;;;;;;;;;4993811;28;20289;-86
2022/12/05 02:13:31;;;;;;;58.97;36.67;;;;;;;;;;4997704;28;20231;-86
2022/12/05 02:16:03;;;;;;;59.43;37.97;;;;;;;;;;5008230;28;20193;-86
2022/12/05 02:18:35;;;;;;;60.77;37.47;;;;;;;;;;4996816;28;20189;-86
2022/12/05 02:21:04;;;;;;;56.67;36.80;;;;;;;;;;4979076;28;20206;-85
2022/12/05 02:23:54;;;;;;;58.30;37.40;;;;;;;;;;4997322;28;20177;-85
2022/12/05 02:26:20;;;;;;;62.17;37.27;;;;;;;;;;4996845;28;20190;-85
2022/12/05 02:28:55;;;;;;;60.27;38.10;;;;;;;;;;5013584;28;20185;-86
2022/12/05 02:31:21;;;;;;;60.77;36.90;;;;;;;;;;4997388;28;20279;-86
2022/12/05 02:33:50;;;;;;;61.97;37.43;;;;;;;;;;4997932;28;20296;-86
2022/12/05 02:36:22;;;;;;;62.37;37.87;;;;;;;;;;4997749;28;20189;-86
2022/12/05 02:38:52;;;;;;;58.83;36.73;;;;;;;;;;4997472;28;20252;-85
2022/12/05 02:41:29;;;;;;;62.60;37.30;;;;;;;;;;4997799;28;20224;-85
2022/12/05 02:44:01;;;;;;;64.63;38.20;;;;;;;;;;4997622;28;20192;-86
2022/12/05 02:46:29;;;;;;;58.67;37.97;;;;;;;;;;5007423;28;20217;-86
2022/12/05 02:49:00;;;;;;;59.80;37.33;;;;;;;;;;4998954;28;20185;-85
2022/12/05 02:51:28;;;;;;;57.20;36.33;;;;;;;;;;5012627;28;20280;-85
2022/12/05 02:53:57;;;;;;;61.87;37.37;;;;;;;;;;4997176;28;20223;-86
2022/12/05 02:56:23;;;;;;;63.10;37.83;;;;;;;;;;4997054;28;20189;-86
2022/12/05 02:58:53;;;;;;;63.00;37.77;;;;;;;;;;4997145;28;20185;-86
2022/12/05 03:01:22;;;;;;;68.10;37.90;;;;;;;;;;5012422;28;20266;-87
2022/12/05 03:03:48;;;;;;;63.83;37.43;;;;;;;;;;5008534;28;20208;-86
2022/12/05 03:06:17;;;;;;;61.20;36.93;;;;;;;;;;4986090;28;20220;-86
2022/12/05 03:08:46;;;;;;;61.77;37.30;;;;;;;;;;4996946;28;20268;-86
2022/12/05 03:11:12;;;;;;;59.53;35.50;;;;;;;;;;5005026;28;20192;-86
2022/12/05 03:13:41;;;;;;;64.70;38.30;;;;;;;;;;4976645;28;20190;-86
2022/12/05 03:16:11;;;;;;;64.30;36.33;;;;;;;;;;5003002;28;20189;-86
2022/12/05 03:18:40;;;;;;;59.20;35.93;;;;;;;;;;5000696;28;20189;-86
2022/12/05 03:21:06;;;;;;;63.33;37.17;;;;;;;;;;4996556;28;20215;-86
2022/12/05 03:23:37;;;;;;;64.43;37.67;;;;;;;;;;4996859;28;20181;-86
2022/12/05 03:26:13;;;;;;;60.50;35.33;;;;;;;;;;4996649;28;20181;-86
2022/12/05 03:28:39;;;;;;;64.40;37.33;;;;;;;;;;5013130;28;20177;-85
2022/12/05 03:31:08;;;;;;;60.90;36.10;;;;;;;;;;4997432;28;20216;-86
2022/12/05 03:33:38;;;;;;;58.43;35.87;;;;;;;;;;5012235;28;20189;-85
2022/12/05 03:36:05;;;;;;;61.40;36.77;;;;;;;;;;4995981;28;20189;-86
2022/12/05 03:38:45;;;;;;;63.20;36.40;;;;;;;;;;4996811;28;20194;-86
2022/12/05 03:41:30;;;;;;;59.93;36.00;;;;;;;;;;4996754;28;20224;-86
2022/12/05 03:44:02;;;;;;;61.63;37.07;;;;;;;;;;4996526;28;20183;-86
2022/12/05 03:46:31;;;;;;;62.73;37.70;;;;;;;;;;4995773;28;20228;-86
2022/12/05 03:48:57;;;;;;;64.37;36.90;;;;;;;;;;4993571;28;20189;-86
2022/12/05 03:51:30;;;;;;;60.40;36.30;;;;;;;;;;4994841;28;20192;-86
2022/12/05 03:53:59;;;;;;;63.60;36.37;;;;;;;;;;4999783;28;20182;-86
2022/12/05 03:56:29;;;;;;;61.30;36.93;;;;;;;;;;5013288;28;20193;-86
2022/12/05 03:59:02;;;;;;;61.50;36.77;;;;;;;;;;5007529;28;20220;-86
2022/12/05 04:01:30;;;;;;;61.37;36.47;;;;;;;;;;4992929;28;20224;-86
2022/12/05 04:03:57;;;;;;;64.70;36.60;;;;;;;;;;4981371;28;20190;-86
2022/12/05 04:06:23;;;;;;;65.73;37.40;;;;;;;;;;5000186;28;20188;-86
2022/12/05 04:08:58;;;;;;;63.47;37.97;;;;;;;;;;5017013;28;20173;-85
2022/12/05 04:11:25;;;;;;;58.93;36.10;;;;;;;;;;5015918;28;20196;-87
2022/12/05 04:13:53;;;;;;;62.17;37.20;;;;;;;;;;5006757;28;20281;-86
2022/12/05 04:19:17;;;;;;;60.37;36.87;;;;;;;;;;5017915;28;20338;-86
2022/12/05 04:21:45;;;;;;;60.53;36.77;;;;;;;;;;5001589;28;20216;-86
2022/12/05 04:27:14;;;;;;;62.73;37.20;;;;;;;;;;5017363;28;20197;-86
2022/12/05 04:29:44;;;;;;;66.17;38.33;;;;;;;;;;5011855;28;20242;-86
2022/12/05 04:32:13;;;;;;;61.53;36.97;;;;;;;;;;5015913;28;20284;-85
2022/12/05 04:34:39;;;;;;;63.17;38.57;;;;;;;;;;5016608;28;20201;-86
2022/12/05 04:37:13;;;;;;;58.73;36.57;;;;;;;;;;4998004;28;20194;-87
2022/12/05 04:39:45;;;;;;;63.73;38.13;;;;;;;;;;4996805;28;20186;-86
2022/12/05 04:42:14;;;;;;;58.10;35.60;;;;;;;;;;4981119;28;20225;-86
2022/12/05 04:44:44;;;;;;;58.67;35.63;;;;;;;;;;4998454;28;20190;-84
2022/12/05 04:47:13;;;;;;;60.10;37.50;;;;;;;;;;4999219;28;20200;-84
2022/12/05 04:49:40;;;;;;;56.27;35.73;;;;;;;;;;4999786;28;20182;-84
2022/12/05 04:52:11;;;;;;;55.17;34.30;;;;;;;;;;4999511;28;20208;-83
2022/12/05 04:54:39;;;;;;;53.00;35.07;;;;;;;;;;4999522;28;20187;-83
2022/12/05 04:57:09;;;;;;;56.93;35.23;;;;;;;;;;4999126;28;20272;-84
2022/12/05 04:59:35;;;;;;;53.53;34.13;;;;;;;;;;4999487;28;20181;-83
2022/12/05 05:02:06;;;;;;;55.53;34.17;;;;;;;;;;4999028;28;20321;-83
2022/12/05 05:04:37;;;;;;;61.90;35.93;;;;;;;;;;4999107;28;20204;-84
2022/12/05 05:07:11;;;;;;;57.73;35.30;;;;;;;;;;4994112;28;20185;-84
2022/12/05 05:09:37;;;;;;;56.73;34.37;;;;;;;;;;5015528;28;20182;-83
2022/12/05 05:12:03;;;;;;;57.00;35.13;;;;;;;;;;5015679;28;20205;-84
2022/12/05 05:14:30;;;;;;;51.80;33.13;;;;;;;;;;5016240;28;20182;-83
2022/12/05 05:16:56;;;;;;;51.53;34.20;;;;;;;;;;4998967;28;20189;-84
2022/12/05 05:19:22;;;;;;;54.23;34.47;;;;;;;;;;4999098;28;20181;-84
2022/12/05 05:21:48;;;;;;;56.03;34.93;;;;;;;;;;4996045;28;20221;-83
2022/12/05 05:24:15;;;;;;;57.53;35.23;;;;;;;;;;5007762;28;20215;-83
2022/12/05 05:26:42;;;;;;;56.13;34.37;;;;;;;;;;5000001;28;20221;-84
2022/12/05 05:29:09;;;;;;;52.30;34.40;;;;;;;;;;5004438;28;20181;-84
2022/12/05 05:31:35;;;;;;;52.70;34.03;;;;;;;;;;5014516;28;20185;-83
2022/12/05 05:34:01;;;;;;;56.83;34.93;;;;;;;;;;5015401;28;20201;-83
2022/12/05 05:36:27;;;;;;;53.57;35.03;;;;;;;;;;5015364;28;20283;-84
2022/12/05 05:38:55;;;;;;;52.53;32.97;;;;;;;;;;4998942;28;20189;-83
2022/12/05 05:41:22;;;;;;;52.73;33.20;;;;;;;;;;5014986;28;20267;-83
2022/12/05 05:43:49;;;;;;;53.67;33.90;;;;;;;;;;5015055;28;20200;-84
2022/12/05 05:46:18;;;;;;;48.30;31.90;;;;;;;;;;4998306;28;20295;-83
2022/12/05 05:48:44;;;;;;;49.33;32.37;;;;;;;;;;4983033;28;20190;-83
2022/12/05 05:51:11;;;;;;;50.30;32.57;;;;;;;;;;4995522;28;20177;-83
2022/12/05 05:53:37;;;;;;;51.73;31.63;;;;;;;;;;4998688;28;20193;-84
2022/12/05 05:56:04;;;;;;;46.77;31.27;;;;;;;;;;4998647;28;20185;-83
2022/12/05 05:58:30;;;;;;;52.73;32.83;;;;;;;;;;4998318;28;20212;-84
2022/12/05 06:01:05;;;;;;;49.63;32.80;;;;;;;;;;4998147;28;20213;-83
2022/12/05 06:03:31;;;;;;;54.63;33.47;;;;;;;;;;4997866;28;20177;-83
2022/12/05 06:06:02;;;;;;;54.67;37.70;;;;;;;;;;4996585;28;20474;-83
2022/12/05 06:08:29;;;;;;;53.97;33.97;;;;;;;;;;4998157;28;20173;-84
2022/12/05 06:10:55;;;;;;;54.00;33.77;;;;;;;;;;5007889;28;20178;-84
2022/12/05 06:13:21;;;;;;;48.87;33.03;;;;;;;;;;4998063;28;20185;-85
2022/12/05 06:15:47;;;;;;;49.17;32.30;;;;;;;;;;5009761;28;20277;-85
2022/12/05 06:18:13;;;;;;;50.60;33.13;;;;;;;;;;5000665;28;20218;-82
2022/12/05 06:20:39;;;;;;;48.20;32.40;;;;;;;;;;5000880;28;20304;-82
2022/12/05 06:23:05;;;;;;;50.30;33.43;;;;;;;;;;4993984;28;20257;-83
2022/12/05 06:25:31;;;;;;;52.95;36.35;;;;;;;;;;5005233;28;20403;-82
2022/12/05 06:27:57;;;;;;;49.73;34.50;;;;;;;;;;4997835;28;20196;-83
2022/12/05 06:30:23;;;;;;;49.57;34.00;;;;;;;;;;5008517;28;20189;-83
2022/12/05 06:32:49;;;;;;;48.20;32.10;;;;;;;;;;4997826;28;20185;-82
2022/12/05 06:35:15;;;;;;;47.27;32.77;;;;;;;;;;4997760;28;20209;-83
2022/12/05 06:37:45;;;;;;;47.80;32.20;;;;;;;;;;4997785;28;20188;-83
2022/12/05 06:40:12;;;;;;;46.60;32.23;;;;;;;;;;4997840;28;20212;-83
2022/12/05 06:42:38;;;;;;;49.70;33.73;;;;;;;;;;4997888;28;20209;-83
2022/12/05 06:45:04;;;;;;;47.23;32.83;;;;;;;;;;4997334;28;20267;-83
2022/12/05 06:47:30;;;;;;;48.17;32.10;;;;;;;;;;4997721;28;20181;-83
2022/12/05 06:49:56;;;;;;;45.43;31.47;;;;;;;;;;4997626;28;20213;-83
2022/12/05 06:52:23;;;;;;;45.57;31.80;;;;;;;;;;5014235;28;20185;-83
2022/12/05 06:54:49;;;;;;;48.03;32.47;;;;;;;;;;5013802;28;20193;-83
2022/12/05 06:57:15;;;;;;;47.50;32.37;;;;;;;;;;4998822;28;20196;-83
2022/12/05 06:59:41;;;;;;;44.70;31.93;;;;;;;;;;4997619;28;20191;-83
2022/12/05 07:02:09;;;;;;;47.03;32.07;;;;;;;;;;4997078;28;20255;-83
2022/12/05 07:04:35;;;;;;;45.87;31.83;;;;;;;;;;5002679;28;20173;-83
2022/12/05 07:07:01;;;;;;;49.37;32.93;;;;;;;;;;4997568;28;20177;-83
2022/12/05 07:09:50;;;;;;;46.20;32.27;;;;;;;;;;4997391;28;20228;-83
2022/12/05 07:12:17;;;;;;;45.33;31.00;;;;;;;;;;5014426;28;20222;-83
2022/12/05 07:14:43;;;;;;;45.57;31.63;;;;;;;;;;5002699;28;20184;-86
2022/12/05 07:17:09;;;;;;;44.33;30.77;;;;;;;;;;5013635;28;20181;-86
2022/12/05 07:19:36;;;;;;;44.47;31.30;;;;;;;;;;4997458;28;20216;-86
2022/12/05 07:22:02;;;;;;;42.17;29.93;;;;;;;;;;4977407;28;20205;-86
2022/12/05 07:24:28;;;;;;;41.90;30.00;;;;;;;;;;4987585;28;20212;-86
2022/12/05 07:26:54;;;;;;;47.93;31.47;;;;;;;;;;5013755;28;20185;-86
2022/12/05 07:29:20;;;;;;;42.30;30.60;;;;;;;;;;5003315;28;20188;-86
2022/12/05 07:31:46;;;;;;;43.27;30.50;;;;;;;;;;4996788;28;20208;-86
2022/12/05 07:34:12;;;;;;;43.63;30.87;;;;;;;;;;4993576;28;20237;-86
2022/12/05 07:36:38;;;;;;;44.17;30.67;;;;;;;;;;4977738;28;20190;-86
2022/12/05 07:39:04;;;;;;;44.77;31.20;;;;;;;;;;4977733;28;20241;-86
2022/12/05 07:41:31;;;;;;;43.83;30.60;;;;;;;;;;4977526;28;20217;-86
2022/12/05 07:43:58;;;;;;;42.20;29.40;;;;;;;;;;4977085;28;20205;-86
2022/12/05 07:46:25;;;;;;;39.47;29.17;;;;;;;;;;4977247;28;20316;-86
2022/12/05 07:48:51;;;;;;;40.80;29.40;;;;;;;;;;4977057;28;20177;-86
2022/12/05 07:51:17;;;;;;;41.93;29.33;;;;;;;;;;4977696;28;20178;-85
2022/12/05 07:53:43;;;;;;;38.80;28.97;;;;;;;;;;4977468;28;20186;-85
2022/12/05 07:56:13;;;;;;;42.87;30.83;;;;;;;;;;4977311;28;20182;-85
2022/12/05 07:58:39;;;;;;;40.23;28.80;;;;;;;;;;4977292;28;20190;-86
2022/12/05 08:01:16;;;;;;;41.93;29.57;;;;;;;;;;4977507;28;20210;-87
2022/12/05 08:03:42;;;;;;;40.07;28.43;;;;;;;;;;4979019;28;20177;-87
2022/12/05 08:06:13;;;;;;;42.87;30.37;;;;;;;;;;4996632;28;20203;-88
2022/12/05 08:08:39;;;;;;;45.70;30.53;;;;;;;;;;4997058;28;20177;-87
2022/12/05 08:11:06;;;;;;;43.83;30.83;;;;;;;;;;4996483;28;20185;-87
2022/12/05 08:13:33;;;;;;;46.60;31.70;;;;;;;;;;4997014;28;20247;-87
2022/12/05 08:16:25;;;;;;;44.93;31.57;;;;;;;;;;4997190;28;20208;-87
2022/12/05 08:19:02;;;;;;;45.70;31.07;;;;;;;;;;4994410;28;20278;-86
2022/12/05 08:21:28;;;;;;;48.13;33.60;;;;;;;;;;4997443;28;20211;-87
2022/12/05 08:23:54;;;;;;;48.93;33.30;;;;;;;;;;4997033;28;20177;-88
2022/12/05 08:26:23;;;;;;;49.80;32.93;;;;;;;;;;4997077;28;20185;-87
2022/12/05 08:29:15;;;;;;;47.37;32.13;;;;;;;;;;4997004;28;20189;-87
2022/12/05 08:31:43;;;;;;;50.57;33.70;;;;;;;;;;4993040;28;20193;-87
2022/12/05 08:34:11;;;;;;;48.93;33.33;;;;;;;;;;4996270;28;20205;-87
2022/12/05 08:36:37;;;;;;;48.73;33.00;;;;;;;;;;4996412;28;20239;-87
2022/12/05 08:39:04;;;;;;;51.20;33.83;;;;;;;;;;4996427;28;20187;-87
2022/12/05 08:41:31;;;;;;;52.73;33.60;;;;;;;;;;4996277;28;20272;-88
2022/12/05 08:43:58;;;;;;;49.83;32.43;;;;;;;;;;4996614;28;20177;-87
2022/12/05 08:46:24;;;;;;;49.33;32.90;;;;;;;;;;4999414;28;20313;-87
2022/12/05 08:48:51;;;;;;;48.70;32.60;;;;;;;;;;5000088;28;20173;-87
2022/12/05 08:51:17;;;;;;;49.90;33.57;;;;;;;;;;5000018;28;20236;-87
2022/12/05 08:53:43;;;;;;;51.73;33.60;;;;;;;;;;4999782;28;20177;-87
2022/12/05 08:56:09;;;;;;;51.07;33.67;;;;;;;;;;4999629;28;20185;-87
2022/12/05 08:58:36;;;;;;;50.47;33.80;;;;;;;;;;5000008;28;20181;-87
2022/12/05 09:01:06;;;;;;;48.53;32.97;;;;;;;;;;4999546;28;20223;-88
2022/12/05 09:03:32;;;;;;;54.70;34.00;;;;;;;;;;4999716;28;20181;-87
2022/12/05 09:06:24;;;;;;;53.70;34.40;;;;;;;;;;4999695;28;20181;-86
2022/12/05 09:08:55;;;;;;;48.60;33.00;;;;;;;;;;4996020;28;20182;-89
2022/12/05 09:11:22;;;;;;;54.67;33.73;;;;;;;;;;4999895;28;20181;-87
2022/12/05 09:13:49;;;;;;;55.43;34.27;;;;;;;;;;4999665;28;20189;-87
2022/12/05 09:16:20;;;;;;;54.70;34.17;;;;;;;;;;4999307;28;20276;-86
2022/12/05 09:18:47;;;;;;;55.07;34.37;;;;;;;;;;4997338;28;20196;-87
2022/12/05 09:21:17;;;;;;;54.47;35.30;;;;;;;;;;4999118;28;20300;-87
2022/12/05 09:23:44;;;;;;;53.67;33.67;;;;;;;;;;4999355;28;20181;-87
2022/12/05 09:26:11;;;;;;;55.70;34.37;;;;;;;;;;4999295;28;20185;-88
2022/12/05 09:28:37;;;;;;;55.57;34.07;;;;;;;;;;4999046;28;20209;-87
2022/12/05 09:31:05;;;;;;;57.73;34.40;;;;;;;;;;4999328;28;20189;-87
2022/12/05 09:33:33;;;;;;;60.53;35.70;;;;;;;;;;5000063;28;20199;-87
2022/12/05 09:35:59;;;;;;;54.80;35.17;;;;;;;;;;4981820;28;20252;-87
2022/12/05 09:38:25;;;;;;;58.23;35.83;;;;;;;;;;4995967;28;20247;-87
2022/12/05 09:40:57;;;;;;;56.73;36.13;;;;;;;;;;4995858;28;20190;-87
2022/12/05 09:43:32;;;;;;;60.73;36.07;;;;;;;;;;4995588;28;20177;-87
2022/12/05 09:46:02;;;;;;;60.20;34.70;;;;;;;;;;4995291;28;20224;-84
2022/12/05 09:48:29;;;;;;;57.23;34.57;;;;;;;;;;4996028;28;20190;-87
2022/12/05 09:51:02;;;;;;;53.93;33.50;;;;;;;;;;4996637;28;20174;-87
2022/12/05 09:53:32;;;;;;;59.10;34.63;;;;;;;;;;4979676;28;20186;-87
2022/12/05 09:56:17;;;;;;;57.60;33.27;;;;;;;;;;4991544;28;20273;-87
2022/12/05 09:58:44;;;;;;;61.37;34.70;;;;;;;;;;4995324;28;20264;-86
2022/12/05 10:01:17;;;;;;;61.00;34.80;;;;;;;;;;4995031;28;20217;-88
2022/12/05 10:04:01;;;;;;;62.83;34.73;;;;;;;;;;4995463;28;20182;-88
2022/12/05 10:06:46;;;;;;;65.50;35.33;;;;;;;;;;4995329;28;20184;-87
2022/12/05 10:09:26;;;;;;;59.03;35.03;;;;;;;;;;4995360;28;20181;-87
2022/12/05 10:11:58;;;;;;;61.40;34.77;;;;;;;;;;4995063;28;20236;-87
2022/12/05 10:14:37;;;;;;;59.37;34.47;;;;;;;;;;4995212;28;20182;-87
2022/12/05 10:17:08;;;;;;;61.80;34.93;;;;;;;;;;4995162;28;20181;-87
2022/12/05 10:19:37;;;;;;;57.47;34.07;;;;;;;;;;4995163;28;20182;-84
2022/12/05 10:22:15;;;;;;;61.93;34.57;;;;;;;;;;4995955;28;20208;-84
2022/12/05 10:24:44;;;;;;;56.37;33.23;;;;;;;;;;4994482;28;20185;-84
2022/12/05 10:27:21;;;;;;;60.10;33.70;;;;;;;;;;4995089;28;20185;-84
2022/12/05 10:30:07;;;;;;;60.63;34.40;;;;;;;;;;4994793;28;20182;-84
2022/12/05 10:32:52;;;;;;;62.63;34.10;;;;;;;;;;4993754;28;20182;-84
2022/12/05 10:35:20;;;;;;;62.30;33.73;;;;;;;;;;4994778;28;20202;-84
2022/12/05 10:37:48;;;;;;;60.07;33.50;;;;;;;;;;4994381;28;20185;-83
2022/12/05 10:40:14;;;;;;;59.80;33.27;;;;;;;;;;4994366;28;20177;-84
2022/12/05 10:42:40;;;;;;;62.83;34.27;;;;;;;;;;4994252;28;20237;-83
2022/12/05 10:45:08;;;;;;;54.83;33.17;;;;;;;;;;4955486;28;20325;-84
2022/12/05 10:47:35;;;;;;;59.20;33.10;;;;;;;;;;4955681;29;20215;-83
2022/12/05 10:50:06;;;;;;;57.53;32.57;;;;;;;;;;4955818;28;20243;-84
2022/12/05 10:52:32;;;;;;;59.37;34.00;;;;;;;;;;4955491;29;20256;-84
2022/12/05 10:55:05;;;;;;;56.83;33.00;;;;;;;;;;4955659;29;20187;-83
2022/12/05 10:57:31;;;;;;;57.97;32.67;;;;;;;;;;4955878;28;20175;-87
2022/12/05 10:59:57;;;;;;;57.47;32.63;;;;;;;;;;4955850;29;20186;-84
2022/12/05 11:02:31;;;;;;;53.60;31.60;;;;;;;;;;4955156;29;20207;-85
2022/12/05 11:04:57;;;;;;;57.97;32.40;;;;;;;;;;4955275;28;20262;-84
2022/12/05 11:07:46;;;;;;;52.83;32.30;;;;;;;;;;4955150;28;20186;-84
2022/12/05 11:10:21;;;;;;;56.50;32.47;;;;;;;;;;4955238;29;20180;-84
2022/12/05 11:12:47;;;;;;;51.30;31.23;;;;;;;;;;4955079;29;20214;-84
2022/12/05 11:15:21;;;;;;;57.73;32.00;;;;;;;;;;4955335;29;20250;-84
2022/12/05 11:17:47;;;;;;;52.80;31.60;;;;;;;;;;4955351;29;20205;-84
2022/12/05 11:20:19;;;;;;;46.97;30.40;;;;;;;;;;4955011;29;20187;-84
2022/12/05 11:22:46;;;;;;;48.30;30.47;;;;;;;;;;4954992;29;20245;-84
2022/12/05 11:25:28;;;;;;;49.23;32.20;;;;;;;;;;4955309;28;20187;-83
2022/12/05 11:27:56;;;;;;;46.87;29.57;;;;;;;;;;4954956;29;20175;-84
2022/12/05 11:30:26;;;;;;;46.70;29.47;;;;;;;;;;4954780;29;20175;-84
2022/12/05 11:33:09;;;;;;;44.30;29.60;;;;;;;;;;4955167;29;20191;-83
2022/12/05 11:35:37;;;;;;;41.13;28.47;;;;;;;;;;4954587;28;20207;-83
2022/12/05 11:38:04;;;;;;;39.77;29.07;;;;;;;;;;4954858;29;20179;-83
2022/12/05 11:40:30;;;;;;;39.90;27.27;;;;;;;;;;4954964;29;20186;-83
2022/12/05 11:43:05;;;;;;;39.77;28.47;;;;;;;;;;4954709;29;20219;-83
2022/12/05 11:45:41;;;;;;;37.97;26.03;;;;;;;;;;4968347;28;20270;-83
2022/12/05 11:48:31;;;;;;;35.30;25.77;;;;;;;;;;4993442;28;20181;-84
2022/12/05 11:51:02;;;;;;;38.57;27.27;;;;;;;;;;4993580;28;20174;-83
2022/12/05 11:53:28;;;;;;;38.07;27.00;;;;;;;;;;4993310;28;20178;-84
2022/12/05 11:56:01;;;;;;;41.70;27.67;;;;;;;;;;4993233;28;20189;-83
2022/12/05 11:58:27;;;;;;;38.10;26.70;;;;;;;;;;4993401;28;20189;-83
2022/12/05 12:01:11;;;;;;;38.80;26.50;;;;;;;;;;4993654;28;20174;-87
2022/12/05 12:03:52;;;;;;;32.00;23.73;;;;;;;;;;4994330;28;20255;-83
2022/12/05 12:06:27;;;;;;;35.10;25.30;;;;;;;;;;4993328;28;20228;-83
2022/12/05 12:08:58;;;;;;;34.57;26.40;;;;;;;;;;4993183;28;20181;-83
2022/12/05 12:11:33;;;;;;;37.13;26.73;;;;;;;;;;4994302;28;20272;-87
2022/12/05 12:13:59;;;;;;;33.23;25.50;;;;;;;;;;4994155;28;20208;-87
2022/12/05 12:16:34;;;;;;;33.30;24.77;;;;;;;;;;4994145;28;20178;-87
2022/12/05 12:19:03;;;;;;;35.73;25.97;;;;;;;;;;4994215;28;20181;-87
2022/12/05 12:21:38;;;;;;;34.33;25.13;;;;;;;;;;4997360;28;20220;-87
2022/12/05 12:24:23;;;;;;;32.50;24.80;;;;;;;;;;4998349;28;20220;-87
2022/12/05 12:27:16;;;;;;;35.00;25.00;;;;;;;;;;4997707;28;20278;-87
2022/12/05 12:30:08;;;;;;;30.47;23.67;;;;;;;;;;4975333;28;20197;-86
2022/12/05 12:32:34;;;;;;;31.90;24.93;;;;;;;;;;4994432;28;20197;-86
2022/12/05 12:35:00;;;;;;;34.43;25.43;;;;;;;;;;4997313;28;20206;-87
2022/12/05 12:37:34;;;;;;;32.90;25.10;;;;;;;;;;4997946;28;20201;-87
2022/12/05 12:40:18;;;;;;;32.20;24.43;;;;;;;;;;4997768;28;20213;-87
2022/12/05 12:42:47;;;;;;;29.07;23.33;;;;;;;;;;4997975;28;20348;-87
2022/12/05 12:45:20;;;;;;;32.17;23.57;;;;;;;;;;4997402;28;20218;-87
2022/12/05 12:48:00;;;;;;;31.17;22.93;;;;;;;;;;4997691;28;20182;-87
2022/12/05 12:50:30;;;;;;;26.67;21.40;;;;;;;;;;4996939;28;20178;-83
2022/12/05 12:52:59;;;;;;;26.77;21.30;;;;;;;;;;4996592;28;20208;-83
2022/12/05 12:55:37;;;;;;;28.73;21.40;;;;;;;;;;4996630;28;20193;-84
2022/12/05 12:58:16;;;;;;;27.97;22.10;;;;;;;;;;4996467;28;20184;-83
2022/12/05 13:01:02;;;;;;;28.27;21.20;;;;;;;;;;4996563;28;20189;-83
2022/12/05 13:03:40;;;;;;;29.07;21.47;;;;;;;;;;4996486;28;20197;-84
2022/12/05 13:06:18;;;;;;;30.10;21.97;;;;;;;;;;4996412;28;20277;-84
2022/12/05 13:08:44;;;;;;;29.93;22.87;;;;;;;;;;4996331;28;20174;-83
2022/12/05 13:11:12;;;;;;;31.13;23.63;;;;;;;;;;4996479;28;20178;-84
2022/12/05 13:13:39;;;;;;;31.60;23.80;;;;;;;;;;4996541;28;20185;-84
2022/12/05 13:16:09;;;;;;;32.53;23.40;;;;;;;;;;4995983;28;20193;-84
2022/12/05 13:18:35;;;;;;;28.80;21.67;;;;;;;;;;4995913;28;20182;-84
2022/12/05 13:21:08;;;;;;;30.17;22.50;;;;;;;;;;4996089;28;20186;-83
2022/12/05 13:23:40;;;;;;;31.27;22.63;;;;;;;;;;5015584;28;20263;-83
2022/12/05 13:26:11;;;;;;;31.00;23.00;;;;;;;;;;5015431;28;20208;-83
2022/12/05 13:28:56;;;;;;;28.93;22.50;;;;;;;;;;5015726;28;20169;-83
2022/12/05 13:31:35;;;;;;;29.43;23.47;;;;;;;;;;5015362;28;20283;-83
2022/12/05 13:34:01;;;;;;;29.77;22.73;;;;;;;;;;5015220;28;20208;-84
2022/12/05 13:42:11;;;;;;;25.63;20.97;;;;;;;;;;5016496;28;20224;-83
2022/12/05 13:44:39;;;;;;;22.73;18.03;;;;;;;;;;5015515;28;20173;-84
2022/12/05 13:47:06;;;;;;;24.30;18.60;;;;;;;;;;5015638;28;20229;-84
2022/12/05 13:49:52;;;;;;;22.30;18.13;;;;;;;;;;5015420;28;20188;-83
2022/12/05 13:52:26;;;;;;;23.13;18.50;;;;;;;;;;5014567;28;20188;-84
2022/12/05 13:55:16;;;;;;;23.33;18.13;;;;;;;;;;5015172;28;20189;-83
2022/12/05 13:57:44;;;;;;;20.20;17.67;;;;;;;;;;5015205;28;20293;-83
2022/12/05 14:00:10;;;;;;;22.37;18.30;;;;;;;;;;5015031;28;20272;-83
2022/12/05 14:02:45;;;;;;;22.37;18.73;;;;;;;;;;5014404;28;20356;-83
2022/12/05 14:05:17;;;;;;;22.47;18.83;;;;;;;;;;5011909;28;20246;-84
2022/12/05 14:07:43;;;;;;;22.07;17.57;;;;;;;;;;5015128;28;20189;-84
2022/12/05 14:10:12;;;;;;;32.00;21.73;;;;;;;;;;5003986;28;20178;-83
2022/12/05 14:12:52;;;;;;;24.93;18.33;;;;;;;;;;4979637;28;20182;-87
2022/12/05 14:15:32;;;;;;;26.53;17.70;;;;;;;;;;4981453;28;20186;-87
2022/12/05 14:18:02;;;;;;;15.63;13.00;;;;;;;;;;4979595;28;20190;-87
2022/12/05 14:20:34;;;;;;;18.23;13.70;;;;;;;;;;4980571;28;20184;-87
2022/12/05 14:23:19;;;;;;;18.40;12.80;;;;;;;;;;4978790;28;20218;-87
2022/12/05 14:26:04;;;;;;;14.50;11.43;;;;;;;;;;4978333;28;20185;-88
2022/12/05 14:28:48;;;;;;;10.50;8.80;;;;;;;;;;4978649;28;20181;-87
2022/12/05 14:31:33;;;;;;;7.53;6.60;;;;;;;;;;4978619;28;20189;-87
2022/12/05 14:34:05;;;;;;;8.47;6.00;;;;;;;;;;4979242;28;20426;-87
2022/12/05 14:36:32;;;;;;;9.33;6.33;;;;;;;;;;4978588;28;20269;-87
2022/12/05 14:38:58;;;;;;;7.97;6.33;;;;;;;;;;4978691;28;20232;-87
2022/12/05 14:41:32;;;;;;;6.40;5.60;;;;;;;;;;4978479;28;20217;-86
2022/12/05 14:43:59;;;;;;;5.47;4.93;;;;;;;;;;4978948;28;20205;-87
2022/12/05 14:46:27;;;;;;;6.43;4.70;;;;;;;;;;4979222;28;20279;-87